sensor_id;sensor_type;location;lat;lon;timestamp;pressure;altitude;pressure_sealevel;temperature;humidity
60611;BME280;46439;51.164;13.572;2023-06-22T00:00:33;100317.24;;;24.26;99.86
60611;BME280;46439;51.164;13.572;2023-06-22T00:03:02;100321.59;;;24.21;100.00
60611;BME280;46439;51.164;13.572;2023-06-22T00:05:30;100317.09;;;24.18;100.00
60611;BME280;46439;51.164;13.572;2023-06-22T00:08:01;100316.83;;;24.17;100.00
60611;BME280;46439;51.164;13.572;2023-06-22T00:10:30;100323.16;;;24.16;100.00
60611;BME280;46439;51.164;13.572;2023-06-22T00:12:58;100327.69;;;24.13;100.00
60611;BME280;46439;51.164;13.572;2023-06-22T00:15:28;100329.00;;;24.11;100.00
60611;BME280;46439;51.164;13.572;2023-06-22T00:17:57;100334.55;;;24.09;100.00
60611;BME280;46439;51.164;13.572;2023-06-22T00:20:27;100338.55;;;24.07;100.00
60611;BME280;46439;51.164;13.572;2023-06-22T00:22:56;100340.45;;;24.05;100.00
60611;BME280;46439;51.164;13.572;2023-06-22T00:25:25;100346.50;;;24.03;100.00
60611;BME280;46439;51.164;13.572;2023-06-22T00:27:54;100349.19;;;24.01;100.00
60611;BME280;46439;51.164;13.572;2023-06-22T00:30:22;100357.17;;;23.99;100.00
60611;BME280;46439;51.164;13.572;2023-06-22T00:32:51;100359.29;;;23.97;100.00
60611;BME280;46439;51.164;13.572;2023-06-22T00:35:20;100362.48;;;23.95;100.00
60611;BME280;46439;51.164;13.572;2023-06-22T00:37:49;100361.65;;;23.91;100.00
60611;BME280;46439;51.164;13.572;2023-06-22T00:40:17;100360.91;;;23.88;100.00
60611;BME280;46439;51.164;13.572;2023-06-22T00:42:50;100357.19;;;23.87;100.00
60611;BME280;46439;51.164;13.572;2023-06-22T00:45:18;100356.64;;;23.86;100.00
60611;BME280;46439;51.164;13.572;2023-06-22T00:47:47;100356.00;;;23.85;100.00
60611;BME280;46439;51.164;13.572;2023-06-22T00:50:20;100351.38;;;23.77;100.00
60611;BME280;46439;51.164;13.572;2023-06-22T00:52:53;100346.21;;;23.63;100.00
60611;BME280;46439;51.164;13.572;2023-06-22T00:55:22;100342.05;;;23.57;100.00
60611;BME280;46439;51.164;13.572;2023-06-22T00:57:51;100342.73;;;23.54;100.00
60611;BME280;46439;51.164;13.572;2023-06-22T01:00:24;100345.05;;;23.49;100.00
60611;BME280;46439;51.164;13.572;2023-06-22T01:02:53;100340.83;;;23.47;100.00
60611;BME280;46439;51.164;13.572;2023-06-22T01:05:22;100340.34;;;23.48;100.00
60611;BME280;46439;51.164;13.572;2023-06-22T01:08:05;100341.83;;;23.44;100.00
60611;BME280;46439;51.164;13.572;2023-06-22T01:10:41;100341.98;;;23.42;100.00
60611;BME280;46439;51.164;13.572;2023-06-22T01:13:18;100339.87;;;23.41;100.00
60611;BME280;46439;51.164;13.572;2023-06-22T01:15:53;100334.67;;;23.36;100.00
60611;BME280;46439;51.164;13.572;2023-06-22T01:18:25;100333.67;;;23.31;100.00
60611;BME280;46439;51.164;13.572;2023-06-22T01:20:57;100331.31;;;23.29;100.00
60611;BME280;46439;51.164;13.572;2023-06-22T01:23:33;100330.09;;;23.27;100.00
60611;BME280;46439;51.164;13.572;2023-06-22T01:26:12;100333.10;;;23.26;100.00
60611;BME280;46439;51.164;13.572;2023-06-22T01:28:47;100332.66;;;23.22;100.00
60611;BME280;46439;51.164;13.572;2023-06-22T01:31:18;100334.77;;;23.20;100.00
60611;BME280;46439;51.164;13.572;2023-06-22T01:33:51;100332.11;;;23.18;100.00
60611;BME280;46439;51.164;13.572;2023-06-22T01:36:20;100327.89;;;23.20;100.00
60611;BME280;46439;51.164;13.572;2023-06-22T01:38:49;100329.55;;;23.17;100.00
60611;BME280;46439;51.164;13.572;2023-06-22T01:41:19;100331.06;;;23.14;100.00
60611;BME280;46439;51.164;13.572;2023-06-22T01:43:49;100331.80;;;23.03;100.00
60611;BME280;46439;51.164;13.572;2023-06-22T01:46:19;100323.33;;;22.93;100.00
60611;BME280;46439;51.164;13.572;2023-06-22T01:48:48;100325.65;;;22.90;100.00
60611;BME280;46439;51.164;13.572;2023-06-22T01:51:18;100323.85;;;22.88;100.00
60611;BME280;46439;51.164;13.572;2023-06-22T01:53:47;100324.65;;;22.86;100.00
60611;BME280;46439;51.164;13.572;2023-06-22T01:56:18;100326.16;;;22.83;100.00
60611;BME280;46439;51.164;13.572;2023-06-22T01:58:50;100331.94;;;22.83;100.00
60611;BME280;46439;51.164;13.572;2023-06-22T02:01:23;100330.61;;;22.83;100.00
60611;BME280;46439;51.164;13.572;2023-06-22T02:03:56;100329.21;;;22.81;100.00
60611;BME280;46439;51.164;13.572;2023-06-22T02:06:30;100325.89;;;22.80;100.00
60611;BME280;46439;51.164;13.572;2023-06-22T02:09:06;100329.07;;;22.77;100.00
60611;BME280;46439;51.164;13.572;2023-06-22T02:11:38;100329.20;;;22.78;100.00
60611;BME280;46439;51.164;13.572;2023-06-22T02:14:08;100327.77;;;22.78;100.00
60611;BME280;46439;51.164;13.572;2023-06-22T02:16:38;100321.10;;;22.76;100.00
60611;BME280;46439;51.164;13.572;2023-06-22T02:19:07;100325.38;;;22.76;100.00
60611;BME280;46439;51.164;13.572;2023-06-22T02:21:36;100326.30;;;22.75;100.00
60611;BME280;46439;51.164;13.572;2023-06-22T02:24:06;100324.83;;;22.73;100.00
60611;BME280;46439;51.164;13.572;2023-06-22T02:26:34;100327.75;;;22.62;100.00
60611;BME280;46439;51.164;13.572;2023-06-22T02:29:04;100331.51;;;22.61;100.00
60611;BME280;46439;51.164;13.572;2023-06-22T02:31:33;100339.00;;;22.61;100.00
60611;BME280;46439;51.164;13.572;2023-06-22T02:34:01;100344.05;;;22.57;100.00
60611;BME280;46439;51.164;13.572;2023-06-22T02:36:30;100342.58;;;22.51;100.00
60611;BME280;46439;51.164;13.572;2023-06-22T02:38:58;100339.16;;;22.49;100.00
60611;BME280;46439;51.164;13.572;2023-06-22T02:41:29;100343.95;;;22.45;100.00
60611;BME280;46439;51.164;13.572;2023-06-22T02:43:58;100347.23;;;22.40;100.00
60611;BME280;46439;51.164;13.572;2023-06-22T02:46:26;100350.40;;;22.37;100.00
60611;BME280;46439;51.164;13.572;2023-06-22T02:48:55;100348.60;;;22.31;100.00
60611;BME280;46439;51.164;13.572;2023-06-22T02:51:23;100351.30;;;22.29;100.00
60611;BME280;46439;51.164;13.572;2023-06-22T02:53:52;100347.67;;;22.29;100.00
60611;BME280;46439;51.164;13.572;2023-06-22T02:56:25;100342.70;;;22.30;100.00
60611;BME280;46439;51.164;13.572;2023-06-22T02:58:54;100339.46;;;22.25;100.00
60611;BME280;46439;51.164;13.572;2023-06-22T03:01:22;100347.59;;;21.97;100.00
60611;BME280;46439;51.164;13.572;2023-06-22T03:03:52;100347.08;;;21.91;100.00
60611;BME280;46439;51.164;13.572;2023-06-22T03:06:21;100343.55;;;21.99;100.00
60611;BME280;46439;51.164;13.572;2023-06-22T03:09:00;100342.32;;;22.04;100.00
60611;BME280;46439;51.164;13.572;2023-06-22T03:11:29;100340.32;;;22.02;100.00
60611;BME280;46439;51.164;13.572;2023-06-22T03:13:58;100330.80;;;21.99;100.00
60611;BME280;46439;51.164;13.572;2023-06-22T03:16:26;100322.20;;;21.95;100.00
60611;BME280;46439;51.164;13.572;2023-06-22T03:18:55;100319.16;;;21.99;100.00
60611;BME280;46439;51.164;13.572;2023-06-22T03:21:26;100317.59;;;22.01;100.00
60611;BME280;46439;51.164;13.572;2023-06-22T03:23:53;100317.09;;;22.04;100.00
60611;BME280;46439;51.164;13.572;2023-06-22T03:26:22;100314.97;;;22.07;100.00
60611;BME280;46439;51.164;13.572;2023-06-22T03:28:55;100310.35;;;22.11;100.00
60611;BME280;46439;51.164;13.572;2023-06-22T03:31:24;100315.50;;;22.15;100.00
60611;BME280;46439;51.164;13.572;2023-06-22T03:33:52;100324.20;;;22.19;100.00
60611;BME280;46439;51.164;13.572;2023-06-22T03:36:21;100324.85;;;22.21;100.00
60611;BME280;46439;51.164;13.572;2023-06-22T03:38:51;100320.23;;;22.24;100.00
60611;BME280;46439;51.164;13.572;2023-06-22T03:41:19;100314.46;;;22.29;100.00
60611;BME280;46439;51.164;13.572;2023-06-22T03:43:48;100311.13;;;22.31;100.00
60611;BME280;46439;51.164;13.572;2023-06-22T03:46:17;100306.77;;;22.33;100.00
60611;BME280;46439;51.164;13.572;2023-06-22T03:48:45;100304.98;;;22.35;100.00
60611;BME280;46439;51.164;13.572;2023-06-22T03:51:14;100302.17;;;22.38;100.00
60611;BME280;46439;51.164;13.572;2023-06-22T03:53:42;100303.71;;;22.37;100.00
60611;BME280;46439;51.164;13.572;2023-06-22T03:56:11;100307.66;;;22.34;100.00
60611;BME280;46439;51.164;13.572;2023-06-22T03:58:40;100315.64;;;22.31;100.00
60611;BME280;46439;51.164;13.572;2023-06-22T04:01:11;100312.77;;;22.34;100.00
60611;BME280;46439;51.164;13.572;2023-06-22T04:03:40;100307.58;;;22.39;100.00
60611;BME280;46439;51.164;13.572;2023-06-22T04:06:09;100309.55;;;22.41;100.00
60611;BME280;46439;51.164;13.572;2023-06-22T04:08:37;100320.99;;;22.44;100.00
60611;BME280;46439;51.164;13.572;2023-06-22T04:11:06;100325.27;;;22.47;100.00
60611;BME280;46439;51.164;13.572;2023-06-22T04:13:34;100334.60;;;22.52;100.00
60611;BME280;46439;51.164;13.572;2023-06-22T04:16:03;100339.55;;;22.55;100.00
60611;BME280;46439;51.164;13.572;2023-06-22T04:18:32;100348.85;;;22.58;100.00
60611;BME280;46439;51.164;13.572;2023-06-22T04:21:01;100347.80;;;22.58;100.00
60611;BME280;46439;51.164;13.572;2023-06-22T04:23:29;100341.46;;;22.57;100.00
60611;BME280;46439;51.164;13.572;2023-06-22T04:25:58;100332.12;;;22.60;100.00
60611;BME280;46439;51.164;13.572;2023-06-22T04:28:27;100327.77;;;22.64;100.00
60611;BME280;46439;51.164;13.572;2023-06-22T04:30:56;100326.17;;;22.68;100.00
60611;BME280;46439;51.164;13.572;2023-06-22T04:33:26;100328.36;;;22.70;100.00
60611;BME280;46439;51.164;13.572;2023-06-22T04:35:55;100340.05;;;22.68;100.00
60611;BME280;46439;51.164;13.572;2023-06-22T04:38:25;100351.23;;;22.62;100.00
60611;BME280;46439;51.164;13.572;2023-06-22T04:40:54;100356.66;;;22.61;100.00
60611;BME280;46439;51.164;13.572;2023-06-22T04:43:22;100360.00;;;22.63;100.00
60611;BME280;46439;51.164;13.572;2023-06-22T04:45:51;100361.95;;;22.65;100.00
60611;BME280;46439;51.164;13.572;2023-06-22T04:48:20;100367.34;;;22.67;100.00
60611;BME280;46439;51.164;13.572;2023-06-22T04:50:49;100381.40;;;22.69;100.00
60611;BME280;46439;51.164;13.572;2023-06-22T04:53:18;100387.77;;;22.71;100.00
60611;BME280;46439;51.164;13.572;2023-06-22T04:55:46;100392.11;;;22.74;100.00
60611;BME280;46439;51.164;13.572;2023-06-22T04:58:17;100395.00;;;22.75;100.00
60611;BME280;46439;51.164;13.572;2023-06-22T05:00:48;100400.81;;;22.80;100.00
60611;BME280;46439;51.164;13.572;2023-06-22T05:03:20;100397.52;;;22.84;100.00
60611;BME280;46439;51.164;13.572;2023-06-22T05:05:48;100398.66;;;22.87;100.00
60611;BME280;46439;51.164;13.572;2023-06-22T05:08:17;100404.83;;;22.91;100.00
60611;BME280;46439;51.164;13.572;2023-06-22T05:10:46;100410.92;;;22.89;100.00
60611;BME280;46439;51.164;13.572;2023-06-22T05:13:14;100417.77;;;22.90;100.00
60611;BME280;46439;51.164;13.572;2023-06-22T05:15:43;100415.81;;;22.92;100.00
60611;BME280;46439;51.164;13.572;2023-06-22T05:18:12;100421.27;;;22.93;100.00
60611;BME280;46439;51.164;13.572;2023-06-22T05:20:40;100419.61;;;22.95;100.00
60611;BME280;46439;51.164;13.572;2023-06-22T05:23:09;100413.46;;;22.99;100.00
60611;BME280;46439;51.164;13.572;2023-06-22T05:25:37;100411.25;;;23.07;100.00
60611;BME280;46439;51.164;13.572;2023-06-22T05:28:06;100415.88;;;23.13;100.00
60611;BME280;46439;51.164;13.572;2023-06-22T05:30:39;100409.71;;;23.18;100.00
60611;BME280;46439;51.164;13.572;2023-06-22T05:33:07;100402.69;;;23.23;100.00
60611;BME280;46439;51.164;13.572;2023-06-22T05:35:36;100397.06;;;23.31;100.00
60611;BME280;46439;51.164;13.572;2023-06-22T05:38:04;100390.04;;;23.40;100.00
60611;BME280;46439;51.164;13.572;2023-06-22T05:40:33;100384.88;;;23.48;100.00
60611;BME280;46439;51.164;13.572;2023-06-22T05:43:01;100384.67;;;23.57;100.00
60611;BME280;46439;51.164;13.572;2023-06-22T05:45:30;100383.33;;;23.60;100.00
60611;BME280;46439;51.164;13.572;2023-06-22T05:47:58;100388.14;;;23.70;100.00
60611;BME280;46439;51.164;13.572;2023-06-22T05:50:27;100393.73;;;23.81;100.00
60611;BME280;46439;51.164;13.572;2023-06-22T05:52:55;100397.33;;;23.87;100.00
60611;BME280;46439;51.164;13.572;2023-06-22T05:55:24;100391.20;;;23.95;100.00
60611;BME280;46439;51.164;13.572;2023-06-22T05:57:52;100384.80;;;24.05;100.00
60611;BME280;46439;51.164;13.572;2023-06-22T06:00:22;100371.94;;;24.17;100.00
60611;BME280;46439;51.164;13.572;2023-06-22T06:02:52;100362.84;;;24.28;100.00
60611;BME280;46439;51.164;13.572;2023-06-22T06:05:20;100354.80;;;24.35;100.00
60611;BME280;46439;51.164;13.572;2023-06-22T06:07:49;100352.94;;;24.48;100.00
60611;BME280;46439;51.164;13.572;2023-06-22T06:10:17;100351.95;;;24.58;100.00
60611;BME280;46439;51.164;13.572;2023-06-22T06:12:46;100349.73;;;24.71;100.00
60611;BME280;46439;51.164;13.572;2023-06-22T06:15:14;100345.69;;;24.76;100.00
60611;BME280;46439;51.164;13.572;2023-06-22T06:17:48;100336.11;;;24.84;100.00
60611;BME280;46439;51.164;13.572;2023-06-22T06:20:18;100324.14;;;25.03;100.00
60611;BME280;46439;51.164;13.572;2023-06-22T06:22:47;100297.43;;;25.16;100.00
60611;BME280;46439;51.164;13.572;2023-06-22T06:25:15;100264.39;;;25.17;100.00
60611;BME280;46439;51.164;13.572;2023-06-22T06:27:47;100262.95;;;25.16;100.00
60611;BME280;46439;51.164;13.572;2023-06-22T06:30:17;100273.09;;;25.21;100.00
60611;BME280;46439;51.164;13.572;2023-06-22T06:32:45;100279.55;;;25.27;100.00
60611;BME280;46439;51.164;13.572;2023-06-22T06:35:15;100271.74;;;25.35;100.00
60611;BME280;46439;51.164;13.572;2023-06-22T06:37:47;100262.83;;;25.42;100.00
60611;BME280;46439;51.164;13.572;2023-06-22T06:40:17;100254.45;;;25.48;100.00
60611;BME280;46439;51.164;13.572;2023-06-22T06:42:47;100246.45;;;25.55;100.00
60611;BME280;46439;51.164;13.572;2023-06-22T06:45:19;100248.53;;;25.61;100.00
60611;BME280;46439;51.164;13.572;2023-06-22T06:47:48;100249.04;;;25.66;100.00
60611;BME280;46439;51.164;13.572;2023-06-22T06:50:18;100255.06;;;25.70;100.00
60611;BME280;46439;51.164;13.572;2023-06-22T06:52:46;100252.43;;;25.73;100.00
60611;BME280;46439;51.164;13.572;2023-06-22T06:55:15;100258.41;;;25.76;100.00
60611;BME280;46439;51.164;13.572;2023-06-22T06:57:44;100258.24;;;25.79;100.00
60611;BME280;46439;51.164;13.572;2023-06-22T07:00:18;100262.35;;;25.85;100.00
60611;BME280;46439;51.164;13.572;2023-06-22T07:02:47;100265.82;;;25.93;100.00
60611;BME280;46439;51.164;13.572;2023-06-22T07:05:16;100273.88;;;26.03;100.00
60611;BME280;46439;51.164;13.572;2023-06-22T07:07:45;100276.27;;;26.15;100.00
60611;BME280;46439;51.164;13.572;2023-06-22T07:10:13;100281.70;;;26.25;100.00
60611;BME280;46439;51.164;13.572;2023-06-22T07:12:43;100277.06;;;26.39;100.00
60611;BME280;46439;51.164;13.572;2023-06-22T07:15:13;100272.19;;;26.51;100.00
60611;BME280;46439;51.164;13.572;2023-06-22T07:17:41;100269.94;;;26.61;100.00
60611;BME280;46439;51.164;13.572;2023-06-22T07:20:12;100269.11;;;26.72;100.00
60611;BME280;46439;51.164;13.572;2023-06-22T07:22:41;100269.70;;;26.85;100.00
60611;BME280;46439;51.164;13.572;2023-06-22T07:25:10;100271.56;;;26.96;100.00
60611;BME280;46439;51.164;13.572;2023-06-22T07:27:45;100275.30;;;27.08;100.00
60611;BME280;46439;51.164;13.572;2023-06-22T07:30:15;100276.38;;;27.16;100.00
60611;BME280;46439;51.164;13.572;2023-06-22T07:32:43;100270.77;;;27.25;100.00
60611;BME280;46439;51.164;13.572;2023-06-22T07:35:12;100267.98;;;27.33;100.00
60611;BME280;46439;51.164;13.572;2023-06-22T07:37:41;100270.45;;;27.42;100.00
60611;BME280;46439;51.164;13.572;2023-06-22T07:40:12;100267.54;;;27.50;100.00
60611;BME280;46439;51.164;13.572;2023-06-22T07:42:40;100267.66;;;27.58;100.00
60611;BME280;46439;51.164;13.572;2023-06-22T07:45:10;100267.35;;;27.66;100.00
60611;BME280;46439;51.164;13.572;2023-06-22T07:47:38;100264.48;;;27.73;100.00
60611;BME280;46439;51.164;13.572;2023-06-22T07:50:08;100268.09;;;27.83;100.00
60611;BME280;46439;51.164;13.572;2023-06-22T07:52:37;100262.85;;;27.90;100.00
60611;BME280;46439;51.164;13.572;2023-06-22T07:55:06;100266.20;;;27.97;100.00
60611;BME280;46439;51.164;13.572;2023-06-22T07:57:35;100266.09;;;28.03;100.00
60611;BME280;46439;51.164;13.572;2023-06-22T08:00:06;100260.10;;;28.14;100.00
60611;BME280;46439;51.164;13.572;2023-06-22T08:02:42;100254.14;;;28.23;100.00
60611;BME280;46439;51.164;13.572;2023-06-22T08:05:11;100260.08;;;28.31;100.00
60611;BME280;46439;51.164;13.572;2023-06-22T08:07:40;100260.59;;;28.36;100.00
60611;BME280;46439;51.164;13.572;2023-06-22T08:10:11;100262.10;;;28.42;100.00
60611;BME280;46439;51.164;13.572;2023-06-22T08:12:39;100257.48;;;28.50;100.00
60611;BME280;46439;51.164;13.572;2023-06-22T08:15:09;100255.13;;;28.67;100.00
60611;BME280;46439;51.164;13.572;2023-06-22T08:17:39;100252.70;;;28.78;100.00
60611;BME280;46439;51.164;13.572;2023-06-22T08:20:10;100249.30;;;28.88;100.00
60611;BME280;46439;51.164;13.572;2023-06-22T08:22:40;100243.66;;;29.01;100.00
60611;BME280;46439;51.164;13.572;2023-06-22T08:25:10;100242.45;;;29.12;100.00
60611;BME280;46439;51.164;13.572;2023-06-22T08:27:39;100236.85;;;29.21;100.00
60611;BME280;46439;51.164;13.572;2023-06-22T08:30:11;100238.13;;;29.29;100.00
60611;BME280;46439;51.164;13.572;2023-06-22T08:32:39;100238.20;;;29.41;100.00
60611;BME280;46439;51.164;13.572;2023-06-22T08:35:09;100234.80;;;29.50;100.00
60611;BME280;46439;51.164;13.572;2023-06-22T08:37:38;100234.48;;;29.61;100.00
60611;BME280;46439;51.164;13.572;2023-06-22T08:40:09;100229.58;;;29.66;100.00
60611;BME280;46439;51.164;13.572;2023-06-22T08:42:37;100226.11;;;29.71;100.00
60611;BME280;46439;51.164;13.572;2023-06-22T08:45:08;100223.49;;;29.81;100.00
60611;BME280;46439;51.164;13.572;2023-06-22T08:47:37;100221.86;;;29.94;100.00
60611;BME280;46439;51.164;13.572;2023-06-22T08:50:07;100223.02;;;30.04;100.00
60611;BME280;46439;51.164;13.572;2023-06-22T08:52:35;100219.23;;;30.18;100.00
60611;BME280;46439;51.164;13.572;2023-06-22T08:55:04;100218.41;;;30.24;100.00
60611;BME280;46439;51.164;13.572;2023-06-22T08:57:33;100215.65;;;30.29;100.00
60611;BME280;46439;51.164;13.572;2023-06-22T09:00:01;100211.77;;;30.27;100.00
60611;BME280;46439;51.164;13.572;2023-06-22T09:02:33;100213.80;;;30.27;100.00
60611;BME280;46439;51.164;13.572;2023-06-22T09:05:05;100217.98;;;30.35;100.00
60611;BME280;46439;51.164;13.572;2023-06-22T09:07:34;100220.99;;;30.41;100.00
60611;BME280;46439;51.164;13.572;2023-06-22T09:10:03;100217.16;;;30.47;100.00
60611;BME280;46439;51.164;13.572;2023-06-22T09:12:34;100215.62;;;30.53;100.00
60611;BME280;46439;51.164;13.572;2023-06-22T09:15:07;100212.78;;;30.61;100.00
60611;BME280;46439;51.164;13.572;2023-06-22T09:17:36;100213.15;;;30.66;100.00
60611;BME280;46439;51.164;13.572;2023-06-22T09:20:07;100211.17;;;30.61;100.00
60611;BME280;46439;51.164;13.572;2023-06-22T09:22:38;100204.59;;;30.68;100.00
60611;BME280;46439;51.164;13.572;2023-06-22T09:25:08;100202.12;;;30.83;100.00
60611;BME280;46439;51.164;13.572;2023-06-22T09:27:37;100198.27;;;30.86;100.00
60611;BME280;46439;51.164;13.572;2023-06-22T09:30:07;100193.98;;;30.89;100.00
60611;BME280;46439;51.164;13.572;2023-06-22T09:32:36;100196.59;;;30.99;100.00
60611;BME280;46439;51.164;13.572;2023-06-22T09:35:06;100196.39;;;31.06;100.00
60611;BME280;46439;51.164;13.572;2023-06-22T09:37:36;100194.13;;;30.97;100.00
60611;BME280;46439;51.164;13.572;2023-06-22T09:40:06;100188.77;;;31.08;100.00
60611;BME280;46439;51.164;13.572;2023-06-22T09:42:39;100191.84;;;31.08;100.00
60611;BME280;46439;51.164;13.572;2023-06-22T09:45:09;100188.90;;;30.90;100.00
60611;BME280;46439;51.164;13.572;2023-06-22T09:47:38;100192.34;;;31.02;100.00
60611;BME280;46439;51.164;13.572;2023-06-22T09:50:08;100189.26;;;31.25;100.00
60611;BME280;46439;51.164;13.572;2023-06-22T09:52:36;100183.52;;;31.42;100.00
60611;BME280;46439;51.164;13.572;2023-06-22T09:55:07;100181.48;;;31.41;100.00
60611;BME280;46439;51.164;13.572;2023-06-22T09:57:35;100180.55;;;31.38;100.00
60611;BME280;46439;51.164;13.572;2023-06-22T10:00:05;100180.26;;;31.39;100.00
60611;BME280;46439;51.164;13.572;2023-06-22T10:02:37;100177.86;;;31.36;100.00
60611;BME280;46439;51.164;13.572;2023-06-22T10:05:06;100174.36;;;31.33;100.00
60611;BME280;46439;51.164;13.572;2023-06-22T10:07:36;100173.13;;;31.30;100.00
60611;BME280;46439;51.164;13.572;2023-06-22T10:10:09;100170.45;;;31.31;100.00
60611;BME280;46439;51.164;13.572;2023-06-22T10:12:44;100164.52;;;31.36;100.00
60611;BME280;46439;51.164;13.572;2023-06-22T10:15:13;100161.92;;;31.45;100.00
60611;BME280;46439;51.164;13.572;2023-06-22T10:17:41;100163.08;;;31.57;100.00
60611;BME280;46439;51.164;13.572;2023-06-22T10:20:11;100165.11;;;31.68;100.00
60611;BME280;46439;51.164;13.572;2023-06-22T10:22:41;100163.63;;;31.71;100.00
60611;BME280;46439;51.164;13.572;2023-06-22T10:25:11;100161.98;;;31.82;100.00
60611;BME280;46439;51.164;13.572;2023-06-22T10:27:40;100157.59;;;31.97;100.00
60611;BME280;46439;51.164;13.572;2023-06-22T10:30:11;100156.68;;;31.99;100.00
60611;BME280;46439;51.164;13.572;2023-06-22T10:32:43;100154.13;;;31.96;100.00
60611;BME280;46439;51.164;13.572;2023-06-22T10:35:12;100146.73;;;32.01;100.00
60611;BME280;46439;51.164;13.572;2023-06-22T10:37:44;100145.73;;;32.05;100.00
60611;BME280;46439;51.164;13.572;2023-06-22T10:40:15;100139.38;;;32.16;100.00
60611;BME280;46439;51.164;13.572;2023-06-22T10:42:44;100137.02;;;32.23;100.00
60611;BME280;46439;51.164;13.572;2023-06-22T10:45:12;100129.44;;;32.32;100.00
60611;BME280;46439;51.164;13.572;2023-06-22T10:47:42;100135.71;;;32.36;100.00
60611;BME280;46439;51.164;13.572;2023-06-22T10:50:11;100131.70;;;32.35;100.00
60611;BME280;46439;51.164;13.572;2023-06-22T10:52:40;100124.04;;;32.34;100.00
60611;BME280;46439;51.164;13.572;2023-06-22T10:55:12;100119.32;;;32.31;100.00
60611;BME280;46439;51.164;13.572;2023-06-22T10:57:40;100121.51;;;32.29;100.00
60611;BME280;46439;51.164;13.572;2023-06-22T11:00:14;100122.08;;;32.44;100.00
60611;BME280;46439;51.164;13.572;2023-06-22T11:02:43;100114.01;;;32.54;100.00
60611;BME280;46439;51.164;13.572;2023-06-22T11:05:12;100116.26;;;32.73;100.00
60611;BME280;46439;51.164;13.572;2023-06-22T11:07:42;100122.35;;;32.85;100.00
60611;BME280;46439;51.164;13.572;2023-06-22T11:10:12;100112.84;;;32.93;100.00
60611;BME280;46439;51.164;13.572;2023-06-22T11:12:41;100108.02;;;32.99;100.00
60611;BME280;46439;51.164;13.572;2023-06-22T11:15:11;100112.79;;;33.12;100.00
60611;BME280;46439;51.164;13.572;2023-06-22T11:17:40;100109.77;;;33.25;100.00
60611;BME280;46439;51.164;13.572;2023-06-22T11:20:10;100105.85;;;33.36;100.00
60611;BME280;46439;51.164;13.572;2023-06-22T11:22:39;100105.06;;;33.45;100.00
60611;BME280;46439;51.164;13.572;2023-06-22T11:25:09;100106.31;;;33.54;100.00
60611;BME280;46439;51.164;13.572;2023-06-22T11:27:40;100097.27;;;33.66;100.00
60611;BME280;46439;51.164;13.572;2023-06-22T11:30:10;100096.70;;;33.65;100.00
60611;BME280;46439;51.164;13.572;2023-06-22T11:32:39;100089.82;;;33.66;100.00
60611;BME280;46439;51.164;13.572;2023-06-22T11:35:10;100088.11;;;33.74;100.00
60611;BME280;46439;51.164;13.572;2023-06-22T11:37:38;100079.99;;;33.84;100.00
60611;BME280;46439;51.164;13.572;2023-06-22T11:40:09;100084.05;;;33.97;100.00
60611;BME280;46439;51.164;13.572;2023-06-22T11:42:37;100081.55;;;33.96;100.00
60611;BME280;46439;51.164;13.572;2023-06-22T11:45:08;100082.80;;;33.84;100.00
60611;BME280;46439;51.164;13.572;2023-06-22T11:47:36;100079.88;;;33.60;100.00
60611;BME280;46439;51.164;13.572;2023-06-22T11:50:07;100079.84;;;33.44;100.00
60611;BME280;46439;51.164;13.572;2023-06-22T11:52:36;100074.05;;;33.45;100.00
60611;BME280;46439;51.164;13.572;2023-06-22T11:55:06;100070.75;;;33.55;100.00
60611;BME280;46439;51.164;13.572;2023-06-22T11:57:37;100077.90;;;33.52;100.00
60611;BME280;46439;51.164;13.572;2023-06-22T12:00:07;100072.85;;;33.54;100.00
60611;BME280;46439;51.164;13.572;2023-06-22T12:02:44;100058.70;;;33.52;100.00
60611;BME280;46439;51.164;13.572;2023-06-22T12:05:16;100054.86;;;33.62;100.00
60611;BME280;46439;51.164;13.572;2023-06-22T12:07:44;100048.13;;;33.76;100.00
60611;BME280;46439;51.164;13.572;2023-06-22T12:10:13;100042.96;;;33.84;100.00
60611;BME280;46439;51.164;13.572;2023-06-22T12:12:42;100042.66;;;33.85;100.00
60611;BME280;46439;51.164;13.572;2023-06-22T12:15:11;100042.80;;;33.70;100.00
60611;BME280;46439;51.164;13.572;2023-06-22T12:17:41;100042.70;;;33.64;100.00
60611;BME280;46439;51.164;13.572;2023-06-22T12:20:11;100042.80;;;33.66;100.00
60611;BME280;46439;51.164;13.572;2023-06-22T12:22:40;100044.21;;;33.66;100.00
60611;BME280;46439;51.164;13.572;2023-06-22T12:25:10;100044.45;;;33.53;100.00
60611;BME280;46439;51.164;13.572;2023-06-22T12:27:39;100041.95;;;33.57;100.00
60611;BME280;46439;51.164;13.572;2023-06-22T12:30:10;100037.16;;;33.72;100.00
60611;BME280;46439;51.164;13.572;2023-06-22T12:32:38;100030.66;;;33.76;100.00
60611;BME280;46439;51.164;13.572;2023-06-22T12:35:08;100025.16;;;33.81;100.00
60611;BME280;46439;51.164;13.572;2023-06-22T12:37:42;100023.75;;;33.89;100.00
60611;BME280;46439;51.164;13.572;2023-06-22T12:40:12;100018.17;;;33.92;100.00
60611;BME280;46439;51.164;13.572;2023-06-22T12:42:41;100017.92;;;33.96;100.00